sensor_id;sensor_type;location;lat;lon;timestamp;temperature;humidity
20706;DHT22;10514;49.468;11.044;2024-03-06T00:00:56;7.70;95.10
20706;DHT22;10514;49.468;11.044;2024-03-06T00:03:22;7.80;95.20
20706;DHT22;10514;49.468;11.044;2024-03-06T00:05:47;7.70;95.20
20706;DHT22;10514;49.468;11.044;2024-03-06T00:08:13;7.80;95.20
20706;DHT22;10514;49.468;11.044;2024-03-06T00:10:40;7.70;95.30
20706;DHT22;10514;49.468;11.044;2024-03-06T00:13:06;7.70;95.30
20706;DHT22;10514;49.468;11.044;2024-03-06T00:15:32;7.70;95.30
20706;DHT22;10514;49.468;11.044;2024-03-06T00:17:57;7.70;95.30
20706;DHT22;10514;49.468;11.044;2024-03-06T00:20:24;7.70;95.30
20706;DHT22;10514;49.468;11.044;2024-03-06T00:22:49;7.70;95.30
20706;DHT22;10514;49.468;11.044;2024-03-06T00:25:15;7.60;95.40
20706;DHT22;10514;49.468;11.044;2024-03-06T00:27:40;7.70;95.40
20706;DHT22;10514;49.468;11.044;2024-03-06T00:30:06;7.70;95.40
20706;DHT22;10514;49.468;11.044;2024-03-06T00:32:32;7.70;95.40
20706;DHT22;10514;49.468;11.044;2024-03-06T00:34:57;7.70;95.40
20706;DHT22;10514;49.468;11.044;2024-03-06T00:37:23;7.70;95.50
20706;DHT22;10514;49.468;11.044;2024-03-06T00:39:48;7.70;95.50
20706;DHT22;10514;49.468;11.044;2024-03-06T00:42:14;7.60;95.50
20706;DHT22;10514;49.468;11.044;2024-03-06T00:44:39;7.60;95.50
20706;DHT22;10514;49.468;11.044;2024-03-06T00:47:05;7.60;95.40
20706;DHT22;10514;49.468;11.044;2024-03-06T00:49:30;7.60;95.50
20706;DHT22;10514;49.468;11.044;2024-03-06T00:51:56;7.60;95.50
20706;DHT22;10514;49.468;11.044;2024-03-06T00:54:21;7.60;95.50
20706;DHT22;10514;49.468;11.044;2024-03-06T00:56:47;7.60;95.50
20706;DHT22;10514;49.468;11.044;2024-03-06T00:59:12;7.60;95.80
20706;DHT22;10514;49.468;11.044;2024-03-06T01:01:38;7.60;95.50
20706;DHT22;10514;49.468;11.044;2024-03-06T01:04:04;7.50;95.60
20706;DHT22;10514;49.468;11.044;2024-03-06T01:06:29;7.50;95.60
20706;DHT22;10514;49.468;11.044;2024-03-06T01:08:56;7.50;95.70
20706;DHT22;10514;49.468;11.044;2024-03-06T01:11:22;7.50;95.80
20706;DHT22;10514;49.468;11.044;2024-03-06T01:13:48;7.50;95.80
20706;DHT22;10514;49.468;11.044;2024-03-06T01:16:13;7.50;95.90
20706;DHT22;10514;49.468;11.044;2024-03-06T01:18:39;7.50;95.90
20706;DHT22;10514;49.468;11.044;2024-03-06T01:21:04;7.50;95.80
20706;DHT22;10514;49.468;11.044;2024-03-06T01:23:30;7.50;95.90
20706;DHT22;10514;49.468;11.044;2024-03-06T01:25:56;7.50;96.00
20706;DHT22;10514;49.468;11.044;2024-03-06T01:28:21;7.50;96.30
20706;DHT22;10514;49.468;11.044;2024-03-06T01:30:47;7.50;96.00
20706;DHT22;10514;49.468;11.044;2024-03-06T01:33:13;7.50;96.00
20706;DHT22;10514;49.468;11.044;2024-03-06T01:35:38;7.40;96.10
20706;DHT22;10514;49.468;11.044;2024-03-06T01:38:04;7.40;96.00
20706;DHT22;10514;49.468;11.044;2024-03-06T01:40:29;7.40;96.00
20706;DHT22;10514;49.468;11.044;2024-03-06T01:42:55;7.40;96.10
20706;DHT22;10514;49.468;11.044;2024-03-06T01:45:21;7.30;96.20
20706;DHT22;10514;49.468;11.044;2024-03-06T01:47:47;7.30;96.20
20706;DHT22;10514;49.468;11.044;2024-03-06T01:50:13;7.30;96.30
20706;DHT22;10514;49.468;11.044;2024-03-06T01:52:39;7.30;96.40
20706;DHT22;10514;49.468;11.044;2024-03-06T01:55:07;7.30;96.40
20706;DHT22;10514;49.468;11.044;2024-03-06T01:57:33;7.30;96.50
20706;DHT22;10514;49.468;11.044;2024-03-06T02:00:00;7.30;96.60
20706;DHT22;10514;49.468;11.044;2024-03-06T02:02:26;7.30;96.60
20706;DHT22;10514;49.468;11.044;2024-03-06T02:04:53;7.30;96.70
20706;DHT22;10514;49.468;11.044;2024-03-06T02:07:20;7.30;96.80
20706;DHT22;10514;49.468;11.044;2024-03-06T02:09:46;7.30;96.80
20706;DHT22;10514;49.468;11.044;2024-03-06T02:12:12;7.30;96.80
20706;DHT22;10514;49.468;11.044;2024-03-06T02:14:38;7.30;96.80
20706;DHT22;10514;49.468;11.044;2024-03-06T02:17:04;7.30;96.90
20706;DHT22;10514;49.468;11.044;2024-03-06T02:19:43;7.30;96.80
20706;DHT22;10514;49.468;11.044;2024-03-06T02:22:09;7.30;96.70
20706;DHT22;10514;49.468;11.044;2024-03-06T02:24:36;7.30;96.90
20706;DHT22;10514;49.468;11.044;2024-03-06T02:27:05;7.30;96.90
20706;DHT22;10514;49.468;11.044;2024-03-06T02:29:33;7.30;96.90
20706;DHT22;10514;49.468;11.044;2024-03-06T02:31:59;7.30;96.90
20706;DHT22;10514;49.468;11.044;2024-03-06T02:34:28;7.30;96.80
20706;DHT22;10514;49.468;11.044;2024-03-06T02:36:54;7.30;96.80
20706;DHT22;10514;49.468;11.044;2024-03-06T02:39:19;7.20;96.90
20706;DHT22;10514;49.468;11.044;2024-03-06T02:41:46;7.20;96.80
20706;DHT22;10514;49.468;11.044;2024-03-06T02:44:12;7.10;97.10
20706;DHT22;10514;49.468;11.044;2024-03-06T02:46:38;7.10;97.10
20706;DHT22;10514;49.468;11.044;2024-03-06T02:49:04;7.10;97.10
20706;DHT22;10514;49.468;11.044;2024-03-06T02:51:31;7.00;97.10
20706;DHT22;10514;49.468;11.044;2024-03-06T02:53:57;7.00;97.30
20706;DHT22;10514;49.468;11.044;2024-03-06T02:56:22;7.10;97.60
20706;DHT22;10514;49.468;11.044;2024-03-06T02:58:48;7.00;97.60
20706;DHT22;10514;49.468;11.044;2024-03-06T03:01:14;7.00;97.80
20706;DHT22;10514;49.468;11.044;2024-03-06T03:03:42;7.00;97.90
20706;DHT22;10514;49.468;11.044;2024-03-06T03:06:09;7.00;98.00
20706;DHT22;10514;49.468;11.044;2024-03-06T03:08:37;7.10;98.00
20706;DHT22;10514;49.468;11.044;2024-03-06T03:11:03;7.10;98.00
20706;DHT22;10514;49.468;11.044;2024-03-06T03:13:29;7.10;98.10
20706;DHT22;10514;49.468;11.044;2024-03-06T03:15:55;7.10;98.00
20706;DHT22;10514;49.468;11.044;2024-03-06T03:18:21;7.00;97.90
20706;DHT22;10514;49.468;11.044;2024-03-06T03:20:46;7.00;98.00
20706;DHT22;10514;49.468;11.044;2024-03-06T03:23:12;7.00;98.10
20706;DHT22;10514;49.468;11.044;2024-03-06T03:25:40;7.00;98.20
20706;DHT22;10514;49.468;11.044;2024-03-06T03:28:06;7.00;98.20
20706;DHT22;10514;49.468;11.044;2024-03-06T03:30:32;6.90;98.40
20706;DHT22;10514;49.468;11.044;2024-03-06T03:32:58;6.90;98.40
20706;DHT22;10514;49.468;11.044;2024-03-06T03:35:23;6.90;98.60
20706;DHT22;10514;49.468;11.044;2024-03-06T03:37:53;6.90;98.60
20706;DHT22;10514;49.468;11.044;2024-03-06T03:40:20;6.90;98.60
20706;DHT22;10514;49.468;11.044;2024-03-06T03:42:46;6.90;98.60
20706;DHT22;10514;49.468;11.044;2024-03-06T03:45:13;6.90;98.60
20706;DHT22;10514;49.468;11.044;2024-03-06T03:47:38;6.90;98.90
20706;DHT22;10514;49.468;11.044;2024-03-06T03:50:04;6.90;98.80
20706;DHT22;10514;49.468;11.044;2024-03-06T03:52:29;6.90;98.80
20706;DHT22;10514;49.468;11.044;2024-03-06T03:54:55;6.90;99.10
20706;DHT22;10514;49.468;11.044;2024-03-06T03:57:21;6.90;99.10
20706;DHT22;10514;49.468;11.044;2024-03-06T03:59:46;6.90;99.10
20706;DHT22;10514;49.468;11.044;2024-03-06T04:02:12;6.90;99.20
20706;DHT22;10514;49.468;11.044;2024-03-06T04:04:37;6.90;99.20
20706;DHT22;10514;49.468;11.044;2024-03-06T04:07:03;6.90;99.20
20706;DHT22;10514;49.468;11.044;2024-03-06T04:09:32;6.90;99.20
20706;DHT22;10514;49.468;11.044;2024-03-06T04:11:57;7.00;99.20
20706;DHT22;10514;49.468;11.044;2024-03-06T04:14:23;7.00;99.30
20706;DHT22;10514;49.468;11.044;2024-03-06T04:16:49;7.00;99.30
20706;DHT22;10514;49.468;11.044;2024-03-06T04:19:14;7.00;99.30
20706;DHT22;10514;49.468;11.044;2024-03-06T04:21:43;7.00;99.30
20706;DHT22;10514;49.468;11.044;2024-03-06T04:24:09;7.00;99.20
20706;DHT22;10514;49.468;11.044;2024-03-06T04:26:35;7.00;99.20
20706;DHT22;10514;49.468;11.044;2024-03-06T04:29:00;7.00;99.10
20706;DHT22;10514;49.468;11.044;2024-03-06T04:31:26;7.00;99.20
20706;DHT22;10514;49.468;11.044;2024-03-06T04:33:51;7.00;99.10
20706;DHT22;10514;49.468;11.044;2024-03-06T04:36:17;7.00;99.20
20706;DHT22;10514;49.468;11.044;2024-03-06T04:38:43;7.00;99.20
20706;DHT22;10514;49.468;11.044;2024-03-06T04:41:08;7.10;99.20
20706;DHT22;10514;49.468;11.044;2024-03-06T04:43:34;7.00;99.20
20706;DHT22;10514;49.468;11.044;2024-03-06T04:46:00;7.00;99.20
20706;DHT22;10514;49.468;11.044;2024-03-06T04:48:26;7.10;99.20
20706;DHT22;10514;49.468;11.044;2024-03-06T04:50:51;7.00;98.80
20706;DHT22;10514;49.468;11.044;2024-03-06T04:53:17;7.00;99.00
20706;DHT22;10514;49.468;11.044;2024-03-06T04:55:42;7.00;99.00
20706;DHT22;10514;49.468;11.044;2024-03-06T04:58:08;6.90;99.10
20706;DHT22;10514;49.468;11.044;2024-03-06T05:00:34;6.90;99.30
20706;DHT22;10514;49.468;11.044;2024-03-06T05:02:59;6.90;99.40
20706;DHT22;10514;49.468;11.044;2024-03-06T05:05:25;6.90;99.50
20706;DHT22;10514;49.468;11.044;2024-03-06T05:07:50;6.90;99.50
20706;DHT22;10514;49.468;11.044;2024-03-06T05:10:17;6.90;99.50
20706;DHT22;10514;49.468;11.044;2024-03-06T05:12:42;6.90;99.60
20706;DHT22;10514;49.468;11.044;2024-03-06T05:15:09;6.90;99.60
20706;DHT22;10514;49.468;11.044;2024-03-06T05:17:35;6.90;99.40
20706;DHT22;10514;49.468;11.044;2024-03-06T05:20:00;6.90;99.50
20706;DHT22;10514;49.468;11.044;2024-03-06T05:22:26;6.90;99.50
20706;DHT22;10514;49.468;11.044;2024-03-06T05:24:52;6.90;99.60
20706;DHT22;10514;49.468;11.044;2024-03-06T05:27:18;6.90;99.40
20706;DHT22;10514;49.468;11.044;2024-03-06T05:29:44;6.90;99.30
20706;DHT22;10514;49.468;11.044;2024-03-06T05:32:10;6.90;99.50
20706;DHT22;10514;49.468;11.044;2024-03-06T05:34:35;6.90;99.60
20706;DHT22;10514;49.468;11.044;2024-03-06T05:37:01;6.90;99.60
20706;DHT22;10514;49.468;11.044;2024-03-06T05:39:29;6.80;99.70
20706;DHT22;10514;49.468;11.044;2024-03-06T05:41:55;6.80;99.80
20706;DHT22;10514;49.468;11.044;2024-03-06T05:44:21;6.90;99.80
20706;DHT22;10514;49.468;11.044;2024-03-06T05:46:47;6.80;99.90
20706;DHT22;10514;49.468;11.044;2024-03-06T05:49:13;6.80;99.90
20706;DHT22;10514;49.468;11.044;2024-03-06T05:51:39;6.80;99.90
20706;DHT22;10514;49.468;11.044;2024-03-06T05:54:05;6.90;99.90
20706;DHT22;10514;49.468;11.044;2024-03-06T05:56:34;6.80;99.90
20706;DHT22;10514;49.468;11.044;2024-03-06T05:58:59;6.90;99.90
20706;DHT22;10514;49.468;11.044;2024-03-06T06:01:30;6.90;99.90
20706;DHT22;10514;49.468;11.044;2024-03-06T06:03:56;6.90;99.90
20706;DHT22;10514;49.468;11.044;2024-03-06T06:06:21;6.90;99.90
20706;DHT22;10514;49.468;11.044;2024-03-06T06:08:47;7.00;99.90
20706;DHT22;10514;49.468;11.044;2024-03-06T06:11:12;7.00;99.90
20706;DHT22;10514;49.468;11.044;2024-03-06T06:13:38;7.00;99.90
20706;DHT22;10514;49.468;11.044;2024-03-06T06:16:07;7.00;99.90
20706;DHT22;10514;49.468;11.044;2024-03-06T06:18:32;7.00;99.90
20706;DHT22;10514;49.468;11.044;2024-03-06T06:20:58;7.00;99.90
20706;DHT22;10514;49.468;11.044;2024-03-06T06:23:24;7.00;99.90
20706;DHT22;10514;49.468;11.044;2024-03-06T06:25:50;7.00;99.90
20706;DHT22;10514;49.468;11.044;2024-03-06T06:28:16;7.00;99.90
20706;DHT22;10514;49.468;11.044;2024-03-06T06:30:42;7.10;99.90
20706;DHT22;10514;49.468;11.044;2024-03-06T06:33:07;7.10;99.90
20706;DHT22;10514;49.468;11.044;2024-03-06T06:35:34;7.20;99.90
20706;DHT22;10514;49.468;11.044;2024-03-06T06:38:00;7.20;99.90
20706;DHT22;10514;49.468;11.044;2024-03-06T06:40:26;7.20;99.90
20706;DHT22;10514;49.468;11.044;2024-03-06T06:42:53;7.30;99.70
20706;DHT22;10514;49.468;11.044;2024-03-06T06:45:19;7.30;99.90
20706;DHT22;10514;49.468;11.044;2024-03-06T06:47:45;7.30;99.90
20706;DHT22;10514;49.468;11.044;2024-03-06T06:50:11;7.30;99.70
20706;DHT22;10514;49.468;11.044;2024-03-06T06:52:40;7.30;99.40
20706;DHT22;10514;49.468;11.044;2024-03-06T06:55:07;7.30;99.50
20706;DHT22;10514;49.468;11.044;2024-03-06T06:57:34;7.40;99.60
20706;DHT22;10514;49.468;11.044;2024-03-06T07:00:01;7.30;99.30
20706;DHT22;10514;49.468;11.044;2024-03-06T07:02:28;7.40;99.40
20706;DHT22;10514;49.468;11.044;2024-03-06T07:04:53;7.50;99.80
20706;DHT22;10514;49.468;11.044;2024-03-06T07:07:19;7.50;99.40
20706;DHT22;10514;49.468;11.044;2024-03-06T07:09:44;7.70;98.70
20706;DHT22;10514;49.468;11.044;2024-03-06T07:12:10;7.70;98.70
20706;DHT22;10514;49.468;11.044;2024-03-06T07:14:35;7.80;98.70
20706;DHT22;10514;49.468;11.044;2024-03-06T07:17:01;7.80;98.40
20706;DHT22;10514;49.468;11.044;2024-03-06T07:19:27;7.90;98.30
20706;DHT22;10514;49.468;11.044;2024-03-06T07:21:52;7.90;97.80
20706;DHT22;10514;49.468;11.044;2024-03-06T07:24:19;7.80;97.90
20706;DHT22;10514;49.468;11.044;2024-03-06T07:26:44;7.90;98.10
20706;DHT22;10514;49.468;11.044;2024-03-06T07:29:10;7.80;97.80
20706;DHT22;10514;49.468;11.044;2024-03-06T07:31:41;7.80;98.00
20706;DHT22;10514;49.468;11.044;2024-03-06T07:34:08;7.80;97.60
20706;DHT22;10514;49.468;11.044;2024-03-06T07:36:34;7.80;97.70
20706;DHT22;10514;49.468;11.044;2024-03-06T07:39:03;7.80;97.70
20706;DHT22;10514;49.468;11.044;2024-03-06T07:41:29;7.80;97.90
20706;DHT22;10514;49.468;11.044;2024-03-06T07:43:55;7.80;97.90
20706;DHT22;10514;49.468;11.044;2024-03-06T07:46:21;7.80;98.10
20706;DHT22;10514;49.468;11.044;2024-03-06T07:48:46;7.80;97.90
20706;DHT22;10514;49.468;11.044;2024-03-06T07:51:12;7.90;98.00
20706;DHT22;10514;49.468;11.044;2024-03-06T07:53:38;7.90;97.70
20706;DHT22;10514;49.468;11.044;2024-03-06T07:56:04;7.80;97.70
20706;DHT22;10514;49.468;11.044;2024-03-06T07:58:29;7.80;97.60
20706;DHT22;10514;49.468;11.044;2024-03-06T08:00:56;7.80;97.60
20706;DHT22;10514;49.468;11.044;2024-03-06T08:03:22;7.80;97.70
20706;DHT22;10514;49.468;11.044;2024-03-06T08:05:52;7.90;97.70
20706;DHT22;10514;49.468;11.044;2024-03-06T08:08:21;8.00;97.30
20706;DHT22;10514;49.468;11.044;2024-03-06T08:10:46;8.10;97.20
20706;DHT22;10514;49.468;11.044;2024-03-06T08:13:13;8.30;96.30
20706;DHT22;10514;49.468;11.044;2024-03-06T08:15:39;8.40;96.20
20706;DHT22;10514;49.468;11.044;2024-03-06T08:18:06;8.50;95.00
20706;DHT22;10514;49.468;11.044;2024-03-06T08:20:31;8.70;95.20
20706;DHT22;10514;49.468;11.044;2024-03-06T08:22:58;8.90;94.80
20706;DHT22;10514;49.468;11.044;2024-03-06T08:25:24;9.00;94.10
20706;DHT22;10514;49.468;11.044;2024-03-06T08:27:50;9.10;91.90
20706;DHT22;10514;49.468;11.044;2024-03-06T08:30:15;9.10;91.90
20706;DHT22;10514;49.468;11.044;2024-03-06T08:32:41;9.20;92.80
20706;DHT22;10514;49.468;11.044;2024-03-06T08:35:10;9.20;91.40
20706;DHT22;10514;49.468;11.044;2024-03-06T08:37:40;9.10;89.30
20706;DHT22;10514;49.468;11.044;2024-03-06T08:40:06;9.20;87.30
20706;DHT22;10514;49.468;11.044;2024-03-06T08:42:43;9.20;88.70
20706;DHT22;10514;49.468;11.044;2024-03-06T08:45:09;9.10;86.10
20706;DHT22;10514;49.468;11.044;2024-03-06T08:47:35;9.00;86.00
20706;DHT22;10514;49.468;11.044;2024-03-06T08:50:01;9.00;85.80
20706;DHT22;10514;49.468;11.044;2024-03-06T08:52:27;8.90;84.90
20706;DHT22;10514;49.468;11.044;2024-03-06T08:54:53;8.90;85.50
20706;DHT22;10514;49.468;11.044;2024-03-06T08:57:19;8.90;85.70
20706;DHT22;10514;49.468;11.044;2024-03-06T08:59:46;8.80;85.10
20706;DHT22;10514;49.468;11.044;2024-03-06T09:02:17;8.70;85.20
20706;DHT22;10514;49.468;11.044;2024-03-06T09:04:44;8.60;86.00
20706;DHT22;10514;49.468;11.044;2024-03-06T09:07:10;8.60;87.20
20706;DHT22;10514;49.468;11.044;2024-03-06T09:09:36;8.60;87.30
20706;DHT22;10514;49.468;11.044;2024-03-06T09:12:03;8.50;87.00
20706;DHT22;10514;49.468;11.044;2024-03-06T09:14:33;8.50;87.00
20706;DHT22;10514;49.468;11.044;2024-03-06T09:16:58;8.60;86.60
20706;DHT22;10514;49.468;11.044;2024-03-06T09:19:24;8.70;86.10
20706;DHT22;10514;49.468;11.044;2024-03-06T09:21:50;8.60;86.30
20706;DHT22;10514;49.468;11.044;2024-03-06T09:24:15;8.70;86.10
20706;DHT22;10514;49.468;11.044;2024-03-06T09:26:41;8.70;86.30
20706;DHT22;10514;49.468;11.044;2024-03-06T09:29:06;8.80;85.50
20706;DHT22;10514;49.468;11.044;2024-03-06T09:31:32;8.90;84.20
20706;DHT22;10514;49.468;11.044;2024-03-06T09:33:57;9.00;84.10
20706;DHT22;10514;49.468;11.044;2024-03-06T09:36:23;9.20;84.40
20706;DHT22;10514;49.468;11.044;2024-03-06T09:38:50;9.40;82.60
20706;DHT22;10514;49.468;11.044;2024-03-06T09:41:16;9.50;80.60
20706;DHT22;10514;49.468;11.044;2024-03-06T09:43:44;9.70;79.40
20706;DHT22;10514;49.468;11.044;2024-03-06T09:46:10;9.80;78.80
20706;DHT22;10514;49.468;11.044;2024-03-06T09:48:36;9.70;79.40
20706;DHT22;10514;49.468;11.044;2024-03-06T09:51:02;9.80;79.30
20706;DHT22;10514;49.468;11.044;2024-03-06T09:53:28;9.90;79.20
20706;DHT22;10514;49.468;11.044;2024-03-06T09:55:56;9.90;78.00
20706;DHT22;10514;49.468;11.044;2024-03-06T09:58:23;10.10;77.70
20706;DHT22;10514;49.468;11.044;2024-03-06T10:00:50;10.30;76.50
20706;DHT22;10514;49.468;11.044;2024-03-06T10:03:16;10.20;76.30
20706;DHT22;10514;49.468;11.044;2024-03-06T10:05:42;10.20;76.00
20706;DHT22;10514;49.468;11.044;2024-03-06T10:08:08;10.20;76.00
20706;DHT22;10514;49.468;11.044;2024-03-06T10:10:35;10.40;75.80
20706;DHT22;10514;49.468;11.044;2024-03-06T10:13:02;10.30;75.60
20706;DHT22;10514;49.468;11.044;2024-03-06T10:15:27;10.30;75.30
20706;DHT22;10514;49.468;11.044;2024-03-06T10:18:16;10.30;76.10
20706;DHT22;10514;49.468;11.044;2024-03-06T10:20:44;10.20;76.70
20706;DHT22;10514;49.468;11.044;2024-03-06T10:23:09;10.30;76.20
20706;DHT22;10514;49.468;11.044;2024-03-06T10:25:35;10.20;75.20
20706;DHT22;10514;49.468;11.044;2024-03-06T10:28:08;10.20;75.30
20706;DHT22;10514;49.468;11.044;2024-03-06T10:30:35;10.20;76.20
20706;DHT22;10514;49.468;11.044;2024-03-06T10:33:04;10.30;75.30
20706;DHT22;10514;49.468;11.044;2024-03-06T10:35:37;10.30;75.40
20706;DHT22;10514;49.468;11.044;2024-03-06T10:38:06;10.50;75.10
20706;DHT22;10514;49.468;11.044;2024-03-06T10:40:35;10.50;74.30
20706;DHT22;10514;49.468;11.044;2024-03-06T10:43:03;10.60;74.20
20706;DHT22;10514;49.468;11.044;2024-03-06T10:45:50;10.80;73.50
20706;DHT22;10514;49.468;11.044;2024-03-06T10:48:18;11.00;71.70
20706;DHT22;10514;49.468;11.044;2024-03-06T10:50:44;11.00;71.20
20706;DHT22;10514;49.468;11.044;2024-03-06T10:53:16;11.00;71.30
20706;DHT22;10514;49.468;11.044;2024-03-06T10:55:45;11.10;70.60
20706;DHT22;10514;49.468;11.044;2024-03-06T10:58:11;11.10;71.10
20706;DHT22;10514;49.468;11.044;2024-03-06T11:00:42;11.10;71.30
20706;DHT22;10514;49.468;11.044;2024-03-06T11:03:11;11.10;70.60
20706;DHT22;10514;49.468;11.044;2024-03-06T11:05:41;11.10;71.00
20706;DHT22;10514;49.468;11.044;2024-03-06T11:08:10;11.00;70.60
20706;DHT22;10514;49.468;11.044;2024-03-06T11:10:40;11.10;70.90
20706;DHT22;10514;49.468;11.044;2024-03-06T11:13:22;11.10;70.20
20706;DHT22;10514;49.468;11.044;2024-03-06T11:15:50;11.10;70.70
20706;DHT22;10514;49.468;11.044;2024-03-06T11:23:29;11.00;69.10
20706;DHT22;10514;49.468;11.044;2024-03-06T11:25:56;11.00;68.70
20706;DHT22;10514;49.468;11.044;2024-03-06T11:28:26;10.90;69.50
20706;DHT22;10514;49.468;11.044;2024-03-06T11:31:07;11.00;69.30
20706;DHT22;10514;49.468;11.044;2024-03-06T11:33:45;10.90;68.30
20706;DHT22;10514;49.468;11.044;2024-03-06T11:36:24;10.90;68.40
20706;DHT22;10514;49.468;11.044;2024-03-06T11:39:06;10.90;68.90
20706;DHT22;10514;49.468;11.044;2024-03-06T11:44:01;11.00;68.00
20706;DHT22;10514;49.468;11.044;2024-03-06T11:46:47;10.90;68.30
20706;DHT22;10514;49.468;11.044;2024-03-06T11:49:20;10.90;67.40
20706;DHT22;10514;49.468;11.044;2024-03-06T11:51:46;10.90;67.40
20706;DHT22;10514;49.468;11.044;2024-03-06T11:54:12;10.50;67.90
20706;DHT22;10514;49.468;11.044;2024-03-06T11:56:45;10.50;67.60
20706;DHT22;10514;49.468;11.044;2024-03-06T11:59:12;10.50;68.20
20706;DHT22;10514;49.468;11.044;2024-03-06T12:01:38;10.40;68.10
20706;DHT22;10514;49.468;11.044;2024-03-06T12:04:04;10.30;69.30
20706;DHT22;10514;49.468;11.044;2024-03-06T12:06:33;10.40;69.60
20706;DHT22;10514;49.468;11.044;2024-03-06T12:08:59;10.50;69.40
20706;DHT22;10514;49.468;11.044;2024-03-06T12:11:25;10.50;69.90
20706;DHT22;10514;49.468;11.044;2024-03-06T12:13:54;10.70;69.50
20706;DHT22;10514;49.468;11.044;2024-03-06T12:16:21;10.60;69.60
20706;DHT22;10514;49.468;11.044;2024-03-06T12:18:52;10.70;69.10
20706;DHT22;10514;49.468;11.044;2024-03-06T12:21:19;10.70;68.70
20706;DHT22;10514;49.468;11.044;2024-03-06T12:23:44;10.80;67.40
20706;DHT22;10514;49.468;11.044;2024-03-06T12:26:10;10.70;67.60
20706;DHT22;10514;49.468;11.044;2024-03-06T12:28:39;10.50;68.50
20706;DHT22;10514;49.468;11.044;2024-03-06T12:31:06;10.50;68.10
20706;DHT22;10514;49.468;11.044;2024-03-06T12:33:33;10.50;68.40
20706;DHT22;10514;49.468;11.044;2024-03-06T12:36:04;10.50;68.20
20706;DHT22;10514;49.468;11.044;2024-03-06T12:38:30;10.60;67.60
20706;DHT22;10514;49.468;11.044;2024-03-06T12:40:56;10.50;67.10
20706;DHT22;10514;49.468;11.044;2024-03-06T12:43:22;10.50;67.20
20706;DHT22;10514;49.468;11.044;2024-03-06T12:45:47;10.60;67.20
20706;DHT22;10514;49.468;11.044;2024-03-06T12:48:13;10.60;66.70
20706;DHT22;10514;49.468;11.044;2024-03-06T12:50:38;10.60;66.60
20706;DHT22;10514;49.468;11.044;2024-03-06T12:53:04;10.60;66.90
20706;DHT22;10514;49.468;11.044;2024-03-06T12:55:32;10.60;67.50
20706;DHT22;10514;49.468;11.044;2024-03-06T12:57:58;10.80;67.10
20706;DHT22;10514;49.468;11.044;2024-03-06T13:00:24;10.90;67.60
20706;DHT22;10514;49.468;11.044;2024-03-06T13:02:50;11.10;66.60
20706;DHT22;10514;49.468;11.044;2024-03-06T13:05:18;11.40;65.00
20706;DHT22;10514;49.468;11.044;2024-03-06T13:07:45;11.40;65.40
20706;DHT22;10514;49.468;11.044;2024-03-06T13:10:11;11.40;65.00
20706;DHT22;10514;49.468;11.044;2024-03-06T13:12:37;11.60;65.30
20706;DHT22;10514;49.468;11.044;2024-03-06T13:15:03;11.80;64.60
20706;DHT22;10514;49.468;11.044;2024-03-06T13:17:30;11.90;64.70
20706;DHT22;10514;49.468;11.044;2024-03-06T13:19:55;11.90;63.40
20706;DHT22;10514;49.468;11.044;2024-03-06T13:22:21;12.00;62.70
20706;DHT22;10514;49.468;11.044;2024-03-06T13:24:47;12.00;63.90
20706;DHT22;10514;49.468;11.044;2024-03-06T13:27:13;12.20;62.20
20706;DHT22;10514;49.468;11.044;2024-03-06T13:29:39;12.40;61.40
20706;DHT22;10514;49.468;11.044;2024-03-06T13:32:08;12.50;61.10
20706;DHT22;10514;49.468;11.044;2024-03-06T13:34:33;12.60;61.10
20706;DHT22;10514;49.468;11.044;2024-03-06T13:36:59;12.60;60.50
20706;DHT22;10514;49.468;11.044;2024-03-06T13:39:25;12.80;60.70
20706;DHT22;10514;49.468;11.044;2024-03-06T13:41:51;12.90;59.50
20706;DHT22;10514;49.468;11.044;2024-03-06T13:44:18;12.80;58.70
20706;DHT22;10514;49.468;11.044;2024-03-06T13:46:43;12.90;60.10
20706;DHT22;10514;49.468;11.044;2024-03-06T13:49:35;12.90;59.90
20706;DHT22;10514;49.468;11.044;2024-03-06T13:52:02;13.00;59.00
20706;DHT22;10514;49.468;11.044;2024-03-06T13:54:27;13.00;59.10
20706;DHT22;10514;49.468;11.044;2024-03-06T13:56:53;13.00;59.00
20706;DHT22;10514;49.468;11.044;2024-03-06T13:59:26;12.90;59.50
20706;DHT22;10514;49.468;11.044;2024-03-06T14:01:52;13.00;60.10
20706;DHT22;10514;49.468;11.044;2024-03-06T14:04:18;13.00;59.40
20706;DHT22;10514;49.468;11.044;2024-03-06T14:06:44;12.90;59.10
20706;DHT22;10514;49.468;11.044;2024-03-06T14:09:10;13.00;59.50
20706;DHT22;10514;49.468;11.044;2024-03-06T14:11:35;13.00;59.60
20706;DHT22;10514;49.468;11.044;2024-03-06T14:14:01;13.00;59.00
20706;DHT22;10514;49.468;11.044;2024-03-06T14:16:26;12.90;60.00
20706;DHT22;10514;49.468;11.044;2024-03-06T14:18:52;13.10;60.40
20706;DHT22;10514;49.468;11.044;2024-03-06T14:21:18;12.90;59.20
20706;DHT22;10514;49.468;11.044;2024-03-06T14:23:44;13.00;60.20
20706;DHT22;10514;49.468;11.044;2024-03-06T14:26:10;12.90;59.90
20706;DHT22;10514;49.468;11.044;2024-03-06T14:28:35;12.90;60.70
20706;DHT22;10514;49.468;11.044;2024-03-06T14:31:01;12.90;59.70
20706;DHT22;10514;49.468;11.044;2024-03-06T14:33:26;12.90;59.70
20706;DHT22;10514;49.468;11.044;2024-03-06T14:35:52;13.00;60.90
20706;DHT22;10514;49.468;11.044;2024-03-06T14:38:18;12.90;60.50
20706;DHT22;10514;49.468;11.044;2024-03-06T14:40:43;12.80;60.60
20706;DHT22;10514;49.468;11.044;2024-03-06T14:43:09;12.80;60.60
20706;DHT22;10514;49.468;11.044;2024-03-06T14:45:35;12.80;61.30
20706;DHT22;10514;49.468;11.044;2024-03-06T14:48:06;12.70;61.80
20706;DHT22;10514;49.468;11.044;2024-03-06T14:50:32;12.60;61.60
20706;DHT22;10514;49.468;11.044;2024-03-06T14:52:58;12.50;62.00
20706;DHT22;10514;49.468;11.044;2024-03-06T14:55:24;12.40;62.40
20706;DHT22;10514;49.468;11.044;2024-03-06T14:57:49;12.30;63.20
20706;DHT22;10514;49.468;11.044;2024-03-06T15:00:15;12.30;63.50
20706;DHT22;10514;49.468;11.044;2024-03-06T15:02:43;12.20;63.10
20706;DHT22;10514;49.468;11.044;2024-03-06T15:05:09;12.30;63.50
20706;DHT22;10514;49.468;11.044;2024-03-06T15:07:38;12.40;63.10
20706;DHT22;10514;49.468;11.044;2024-03-06T15:10:07;12.40;63.20
20706;DHT22;10514;49.468;11.044;2024-03-06T15:12:36;12.40;63.30
20706;DHT22;10514;49.468;11.044;2024-03-06T15:15:03;12.40;63.40
20706;DHT22;10514;49.468;11.044;2024-03-06T15:17:31;12.40;63.20
20706;DHT22;10514;49.468;11.044;2024-03-06T15:19:58;12.40;63.20
20706;DHT22;10514;49.468;11.044;2024-03-06T15:22:23;12.50;63.20
20706;DHT22;10514;49.468;11.044;2024-03-06T15:24:49;12.40;63.20
20706;DHT22;10514;49.468;11.044;2024-03-06T15:27:17;12.40;63.40
20706;DHT22;10514;49.468;11.044;2024-03-06T15:29:43;12.60;63.70